Time;durP1;ratioP1;P1;durP2;ratioP2;P2;SDS_P1;SDS_P2;PMS_P1;PMS_P2;Temp;Humidity;BMP_temperature;BMP_pressure;BME280_temperature;BME280_humidity;BME280_pressure;Samples;Min_cycle;Max_cycle;Signal;HPM_P1;HPM_P2
2021/11/24 00:00:24;;;;;;;5.82;3.05;;;8.50;98.80;;;;;;4997874;28;20029;-77
2021/11/24 00:02:50;;;;;;;5.93;3.20;;;8.50;98.80;;;;;;4997539;28;20029;-77
2021/11/24 00:05:17;;;;;;;5.25;2.75;;;8.50;98.80;;;;;;4995004;28;20097;-78
2021/11/24 00:07:43;;;;;;;6.35;3.22;;;8.40;98.70;;;;;;4995398;28;20068;-77
2021/11/24 00:10:10;;;;;;;5.53;3.17;;;8.40;98.80;;;;;;4995203;28;20093;-77
2021/11/24 00:12:36;;;;;;;5.60;3.22;;;8.40;98.80;;;;;;4990752;28;20113;-77
2021/11/24 00:15:04;;;;;;;5.68;3.63;;;8.40;98.80;;;;;;4990061;28;20034;-77
2021/11/24 00:17:29;;;;;;;7.35;3.13;;;8.40;98.80;;;;;;4984430;28;20088;-77
2021/11/24 00:19:55;;;;;;;6.32;2.92;;;8.40;98.80;;;;;;4992591;28;20022;-77
2021/11/24 00:22:21;;;;;;;5.30;2.88;;;8.40;98.80;;;;;;4996613;28;20034;-77
2021/11/24 00:24:47;;;;;;;5.63;2.72;;;8.40;98.80;;;;;;4995645;28;20378;-77
2021/11/24 00:27:13;;;;;;;4.50;2.60;;;8.40;98.80;;;;;;4993041;28;20018;-77
2021/11/24 00:29:38;;;;;;;6.05;3.22;;;8.40;99.00;;;;;;4994672;28;20037;-77
2021/11/24 00:32:05;;;;;;;6.65;2.70;;;8.40;98.80;;;;;;4993040;28;20156;-77
2021/11/24 00:34:30;;;;;;;6.13;2.67;;;8.40;98.80;;;;;;4995226;28;20041;-78
2021/11/24 00:36:56;;;;;;;6.15;3.35;;;8.40;98.80;;;;;;4993001;28;20023;-78
2021/11/24 00:39:22;;;;;;;7.20;3.33;;;8.40;98.70;;;;;;4991027;28;20022;-76
2021/11/24 00:41:48;;;;;;;5.53;2.88;;;8.40;98.70;;;;;;4995560;28;20038;-77
2021/11/24 00:44:13;;;;;;;6.13;3.22;;;8.40;98.70;;;;;;4990089;28;20033;-77
2021/11/24 00:46:39;;;;;;;6.68;2.80;;;8.40;98.60;;;;;;4992239;28;20049;-77
2021/11/24 00:49:06;;;;;;;8.13;3.50;;;8.40;98.60;;;;;;4992133;28;20051;-77
2021/11/24 00:51:31;;;;;;;8.18;3.78;;;8.40;98.60;;;;;;4992461;28;20033;-77
2021/11/24 00:53:57;;;;;;;6.55;3.53;;;8.40;98.60;;;;;;4992496;28;20109;-77
2021/11/24 00:56:23;;;;;;;7.38;3.88;;;8.40;98.60;;;;;;4994173;28;20050;-77
2021/11/24 00:58:49;;;;;;;8.52;3.25;;;8.40;98.70;;;;;;4987583;28;20022;-77
2021/11/24 01:01:14;;;;;;;5.90;2.90;;;8.30;98.70;;;;;;4989226;28;20035;-77
2021/11/24 01:03:40;;;;;;;5.25;3.03;;;8.30;98.70;;;;;;4991797;28;20034;-78
2021/11/24 01:06:06;;;;;;;6.32;2.80;;;8.30;98.70;;;;;;4999820;28;20148;-77
2021/11/24 01:08:32;;;;;;;4.53;2.75;;;8.30;98.70;;;;;;5003288;28;20060;-78
2021/11/24 01:10:57;;;;;;;5.53;2.83;;;8.30;98.70;;;;;;4993137;28;20109;-77
2021/11/24 01:13:24;;;;;;;4.25;2.38;;;8.30;98.70;;;;;;4991092;28;20034;-77
2021/11/24 01:15:50;;;;;;;5.68;2.50;;;8.30;98.60;;;;;;4995447;28;20292;-77
2021/11/24 01:18:16;;;;;;;4.68;2.53;;;8.30;98.50;;;;;;4988435;28;20049;-77
2021/11/24 01:20:46;;;;;;;4.75;2.63;;;8.30;98.50;;;;;;5004724;28;20088;-77
2021/11/24 01:23:11;;;;;;;4.45;2.60;;;8.40;98.50;;;;;;5005374;28;20023;-77
2021/11/24 01:25:37;;;;;;;5.38;3.10;;;8.30;98.40;;;;;;5002083;28;20033;-76
2021/11/24 01:28:03;;;;;;;4.75;2.72;;;8.40;98.40;;;;;;4994727;28;20157;-77
2021/11/24 01:30:29;;;;;;;5.60;3.13;;;8.30;98.40;;;;;;5007836;28;20088;-76
2021/11/24 01:32:55;;;;;;;4.55;2.50;;;8.30;98.50;;;;;;5002933;28;20105;-76
2021/11/24 01:35:20;;;;;;;4.13;2.67;;;8.30;98.50;;;;;;5005167;28;20073;-76
2021/11/24 01:37:46;;;;;;;4.18;2.70;;;8.20;98.50;;;;;;4997155;28;20089;-76
2021/11/24 01:40:12;;;;;;;4.90;2.53;;;8.20;98.60;;;;;;5005415;28;20031;-77
2021/11/24 01:42:38;;;;;;;5.85;3.13;;;8.20;98.60;;;;;;5003979;28;20057;-77
2021/11/24 01:45:05;;;;;;;5.65;3.45;;;8.10;98.60;;;;;;5000866;28;20053;-77
2021/11/24 01:47:30;;;;;;;6.00;3.28;;;8.10;98.70;;;;;;4992990;28;20113;-77
2021/11/24 01:49:56;;;;;;;5.45;3.53;;;8.10;98.70;;;;;;4994442;28;20124;-78
2021/11/24 01:52:22;;;;;;;5.75;2.72;;;8.10;98.70;;;;;;4992682;28;20038;-77
2021/11/24 01:54:48;;;;;;;5.32;3.15;;;8.10;98.70;;;;;;4996636;28;20034;-77
2021/11/24 01:57:17;;;;;;;5.43;3.35;;;8.20;98.70;;;;;;5001679;28;20383;-77
2021/11/24 01:59:46;;;;;;;4.72;2.60;;;8.20;98.60;;;;;;5001027;28;20023;-77
2021/11/24 02:02:11;;;;;;;4.03;2.38;;;8.20;98.50;;;;;;5001898;28;20022;-77
2021/11/24 02:04:37;;;;;;;5.80;3.17;;;8.20;98.50;;;;;;5003358;28;20406;-77
2021/11/24 02:07:03;;;;;;;4.32;2.65;;;8.30;98.40;;;;;;4993235;28;20041;-74
2021/11/24 02:09:28;;;;;;;4.80;2.80;;;8.30;98.40;;;;;;4992457;28;20104;-76
2021/11/24 02:11:57;;;;;;;5.15;2.80;;;8.20;98.40;;;;;;4992793;28;20030;-77
2021/11/24 02:14:23;;;;;;;4.40;2.70;;;8.20;98.40;;;;;;4992916;28;20137;-75
2021/11/24 02:16:52;;;;;;;3.60;2.42;;;8.10;98.50;;;;;;4994574;28;20113;-77
2021/11/24 02:19:19;;;;;;;5.30;2.70;;;8.10;98.60;;;;;;5000267;28;20018;-76
2021/11/24 02:21:51;;;;;;;4.85;2.70;;;8.10;98.60;;;;;;5001381;28;20518;-76
2021/11/24 02:24:18;;;;;;;5.15;2.72;;;8.00;98.60;;;;;;4998261;28;20026;-76
2021/11/24 02:26:44;;;;;;;4.53;2.67;;;8.00;98.70;;;;;;4995900;28;20045;-76
2021/11/24 02:29:10;;;;;;;4.20;2.40;;;7.90;98.70;;;;;;4991316;28;20821;-76
2021/11/24 02:31:36;;;;;;;4.45;2.95;;;7.90;98.70;;;;;;4992516;28;20521;-76
2021/11/24 02:34:02;;;;;;;5.28;2.78;;;7.90;98.80;;;;;;4996217;28;20042;-77
2021/11/24 02:36:29;;;;;;;4.80;2.83;;;7.90;98.80;;;;;;4993785;28;20045;-76
2021/11/24 02:38:54;;;;;;;4.47;2.83;;;7.90;98.80;;;;;;4993824;28;20494;-77
2021/11/24 02:41:20;;;;;;;3.88;2.58;;;7.90;98.70;;;;;;4995633;28;20034;-76
2021/11/24 02:43:46;;;;;;;5.20;2.70;;;7.90;98.70;;;;;;4991864;28;20062;-76
2021/11/24 02:46:12;;;;;;;4.63;2.50;;;7.80;98.70;;;;;;4993022;28;20018;-76
2021/11/24 02:48:38;;;;;;;4.28;2.60;;;7.90;98.70;;;;;;4993259;28;20088;-77
2021/11/24 02:51:04;;;;;;;4.07;2.83;;;7.80;98.70;;;;;;4992807;28;20478;-77
2021/11/24 02:53:35;;;;;;;4.47;2.58;;;7.80;98.80;;;;;;4991786;28;20042;-77
2021/11/24 02:56:02;;;;;;;5.07;2.90;;;7.80;98.80;;;;;;4994279;28;20030;-77
2021/11/24 02:58:28;;;;;;;4.50;2.67;;;7.70;98.80;;;;;;4995836;28;20057;-75
2021/11/24 03:00:56;;;;;;;4.15;2.47;;;7.70;98.80;;;;;;4992846;28;20053;-76
2021/11/24 03:03:21;;;;;;;4.50;2.83;;;7.70;98.70;;;;;;4994825;28;20022;-76
2021/11/24 03:05:47;;;;;;;6.88;3.10;;;7.70;98.70;;;;;;4993613;28;20023;-76
2021/11/24 03:08:13;;;;;;;3.95;2.53;;;7.60;98.70;;;;;;4992238;28;20038;-76
2021/11/24 03:10:39;;;;;;;4.97;2.63;;;7.70;98.70;;;;;;4994601;28;20033;-77
2021/11/24 03:13:06;;;;;;;4.95;3.10;;;7.60;98.70;;;;;;4994032;28;20027;-76
2021/11/24 03:15:33;;;;;;;4.38;2.60;;;7.60;98.70;;;;;;4992875;28;20037;-77
2021/11/24 03:17:59;;;;;;;4.93;3.22;;;7.60;98.70;;;;;;4987060;28;20041;-77
2021/11/24 03:20:28;;;;;;;5.13;2.85;;;7.60;98.70;;;;;;5012373;28;20025;-77
2021/11/24 03:22:55;;;;;;;3.53;2.50;;;7.50;98.70;;;;;;5012194;28;20076;-76
2021/11/24 03:25:22;;;;;;;4.88;2.70;;;7.50;98.70;;;;;;5011648;28;20026;-76
2021/11/24 03:27:49;;;;;;;3.80;2.60;;;7.50;98.80;;;;;;5012364;28;20034;-77
2021/11/24 03:30:17;;;;;;;5.07;3.22;;;7.40;98.70;;;;;;5015894;28;20013;-76
2021/11/24 03:32:43;;;;;;;4.80;2.65;;;7.40;98.70;;;;;;5010833;28;20034;-77
2021/11/24 03:35:09;;;;;;;4.47;2.85;;;7.50;98.80;;;;;;5016224;28;20457;-76
2021/11/24 03:37:35;;;;;;;5.30;2.65;;;7.50;98.70;;;;;;5027632;28;20025;-77
2021/11/24 03:40:04;;;;;;;4.65;3.10;;;7.50;98.70;;;;;;5027851;28;20061;-77
2021/11/24 03:42:30;;;;;;;5.85;3.47;;;7.50;98.70;;;;;;5022959;28;20022;-76
2021/11/24 03:44:56;;;;;;;4.00;2.80;;;7.50;98.70;;;;;;5010382;28;20504;-76
2021/11/24 03:47:21;;;;;;;5.32;3.15;;;7.50;98.60;;;;;;5024083;28;20361;-76
2021/11/24 03:49:47;;;;;;;4.00;2.47;;;7.60;98.60;;;;;;5027097;28;20462;-76
2021/11/24 03:52:12;;;;;;;3.95;2.58;;;7.60;98.50;;;;;;5024934;28;20030;-76
2021/11/24 03:54:38;;;;;;;6.28;3.45;;;7.60;98.50;;;;;;5024183;28;20040;-76
2021/11/24 03:57:04;;;;;;;5.22;3.15;;;7.70;98.50;;;;;;5012020;28;20018;-76
2021/11/24 03:59:30;;;;;;;6.53;3.40;;;7.70;98.40;;;;;;5011427;28;20106;-76
2021/11/24 04:01:55;;;;;;;5.28;3.33;;;7.70;98.30;;;;;;5011813;28;20501;-76
2021/11/24 04:04:21;;;;;;;6.18;3.30;;;7.60;98.30;;;;;;5020358;28;20469;-76
2021/11/24 04:06:47;;;;;;;5.93;3.20;;;7.60;98.30;;;;;;5020794;28;20477;-77
2021/11/24 04:09:12;;;;;;;7.13;3.85;;;7.60;98.60;;;;;;5021070;28;20053;-77
2021/11/24 04:11:38;;;;;;;6.00;3.65;;;7.60;98.30;;;;;;5023229;28;20504;-77
2021/11/24 04:14:04;;;;;;;4.85;2.97;;;7.50;98.20;;;;;;5022373;28;20096;-76
2021/11/24 04:16:30;;;;;;;6.07;3.35;;;7.50;98.20;;;;;;5021815;28;20041;-76
2021/11/24 04:18:59;;;;;;;5.63;3.22;;;7.50;98.20;;;;;;5007141;28;20048;-76
2021/11/24 04:21:25;;;;;;;5.50;3.38;;;7.50;98.30;;;;;;5010518;28;20026;-77
2021/11/24 04:23:50;;;;;;;5.63;3.33;;;7.40;98.30;;;;;;5012597;28;20404;-76
2021/11/24 04:26:16;;;;;;;5.03;2.88;;;7.50;98.30;;;;;;5012536;28;20022;-78
2021/11/24 04:28:42;;;;;;;5.95;3.20;;;7.50;98.30;;;;;;5014901;28;20022;-78
2021/11/24 04:31:09;;;;;;;5.40;3.13;;;7.50;98.20;;;;;;5014228;28;20025;-77
2021/11/24 04:33:36;;;;;;;5.55;3.47;;;7.60;98.30;;;;;;5014059;28;20105;-77
2021/11/24 04:36:02;;;;;;;5.43;3.05;;;7.60;98.30;;;;;;5012189;28;20065;-77
2021/11/24 04:38:28;;;;;;;5.20;3.03;;;7.60;98.40;;;;;;5012296;28;20029;-77
2021/11/24 04:40:55;;;;;;;4.90;3.25;;;7.60;98.30;;;;;;5012671;28;20022;-77
2021/11/24 04:43:22;;;;;;;5.72;3.03;;;7.60;98.30;;;;;;5012293;28;20463;-77
2021/11/24 04:45:48;;;;;;;4.03;2.65;;;7.70;98.20;;;;;;5012261;28;20428;-76
2021/11/24 04:48:16;;;;;;;4.53;2.88;;;7.70;98.20;;;;;;5010868;28;20030;-75
2021/11/24 04:50:42;;;;;;;4.35;2.88;;;7.60;98.20;;;;;;5011225;28;20465;-76
2021/11/24 04:53:07;;;;;;;5.15;3.00;;;7.60;98.20;;;;;;5012461;28;20030;-77
2021/11/24 04:55:33;;;;;;;4.82;3.03;;;7.60;98.20;;;;;;5012038;28;20391;-76
2021/11/24 04:57:59;;;;;;;5.45;3.13;;;7.70;98.20;;;;;;5012560;28;20487;-77
2021/11/24 05:00:25;;;;;;;6.03;3.10;;;7.70;98.10;;;;;;5014073;28;20454;-76
2021/11/24 05:02:52;;;;;;;5.47;2.95;;;7.70;98.10;;;;;;5016435;28;20033;-76
2021/11/24 05:05:27;;;;;;;4.60;2.80;;;7.80;98.10;;;;;;5015934;28;20022;-76
2021/11/24 05:07:53;;;;;;;3.95;2.38;;;7.80;98.00;;;;;;5011701;28;20494;-77
2021/11/24 05:10:18;;;;;;;4.57;2.63;;;7.80;98.00;;;;;;5013854;28;20022;-78
2021/11/24 05:12:44;;;;;;;4.18;2.67;;;7.80;98.00;;;;;;5013806;28;20458;-78
2021/11/24 05:15:17;;;;;;;4.38;2.40;;;7.80;97.90;;;;;;5014438;28;20036;-78
2021/11/24 05:17:45;;;;;;;5.10;2.95;;;7.80;97.90;;;;;;5000928;28;20023;-78
2021/11/24 05:20:11;;;;;;;5.57;2.80;;;7.80;97.80;;;;;;4993092;28;20026;-78
2021/11/24 05:22:37;;;;;;;5.07;3.15;;;7.80;97.90;;;;;;5025394;28;20069;-79
2021/11/24 05:25:03;;;;;;;5.28;3.13;;;7.80;97.90;;;;;;5009319;28;20113;-79
2021/11/24 05:27:29;;;;;;;6.05;3.85;;;7.80;98.00;;;;;;5008979;28;20501;-75
2021/11/24 05:29:54;;;;;;;5.68;3.67;;;7.80;98.00;;;;;;4996207;28;20022;-75
2021/11/24 05:32:20;;;;;;;5.10;2.83;;;7.80;98.00;;;;;;5010810;28;20422;-76
2021/11/24 05:34:46;;;;;;;4.35;2.85;;;7.90;98.00;;;;;;4996237;28;20536;-75
2021/11/24 05:37:11;;;;;;;4.95;3.10;;;7.90;97.90;;;;;;4996052;28;20034;-76
2021/11/24 05:39:37;;;;;;;4.97;2.45;;;8.00;97.90;;;;;;4995266;28;20030;-76
2021/11/24 05:42:04;;;;;;;4.95;2.88;;;8.00;97.90;;;;;;4996107;28;20030;-76
2021/11/24 05:44:33;;;;;;;4.32;2.55;;;7.90;97.90;;;;;;5027048;28;20026;-76
2021/11/24 05:47:06;;;;;;;5.15;3.00;;;7.90;97.90;;;;;;5009340;28;20027;-75
2021/11/24 05:49:31;;;;;;;4.72;2.78;;;7.90;97.90;;;;;;5014545;28;20045;-73
2021/11/24 05:51:58;;;;;;;6.30;3.03;;;7.90;97.90;;;;;;5045620;28;20026;-75
2021/11/24 05:54:24;;;;;;;5.40;2.75;;;8.00;97.90;;;;;;5014457;28;20022;-75
2021/11/24 05:56:50;;;;;;;11.75;3.40;;;8.00;97.90;;;;;;5014779;28;20038;-75
2021/11/24 05:59:17;;;;;;;6.97;3.03;;;7.90;97.80;;;;;;5013908;28;20052;-75
2021/11/24 06:01:43;;;;;;;5.18;3.00;;;7.90;97.70;;;;;;5014839;28;20061;-75
2021/11/24 06:04:09;;;;;;;5.18;2.65;;;7.90;97.70;;;;;;5046901;28;20061;-75
2021/11/24 06:06:36;;;;;;;6.32;2.85;;;7.90;97.70;;;;;;5014763;28;20026;-76
2021/11/24 06:09:03;;;;;;;6.55;3.47;;;8.00;97.80;;;;;;5014786;28;20099;-76
2021/11/24 06:11:29;;;;;;;7.30;3.17;;;7.90;97.80;;;;;;5014346;28;20030;-74
2021/11/24 06:13:55;;;;;;;10.38;3.88;;;7.90;97.80;;;;;;5015366;28;20029;-75
2021/11/24 06:16:21;;;;;;;8.23;3.30;;;7.90;97.90;;;;;;5045761;28;20367;-75
2021/11/24 06:18:48;;;;;;;7.38;3.17;;;8.00;97.90;;;;;;5015026;28;20105;-75
2021/11/24 06:21:14;;;;;;;6.55;3.22;;;8.00;97.80;;;;;;5014954;28;20033;-75
2021/11/24 06:23:41;;;;;;;7.63;3.15;;;8.00;97.70;;;;;;5013117;28;20241;-76
2021/11/24 06:26:07;;;;;;;7.90;3.00;;;8.00;97.70;;;;;;5014850;28;20044;-75
2021/11/24 06:28:33;;;;;;;7.22;3.13;;;8.00;97.70;;;;;;5014282;28;20045;-76
2021/11/24 06:31:00;;;;;;;7.50;3.53;;;8.00;97.70;;;;;;5014759;28;20108;-75
2021/11/24 06:33:26;;;;;;;6.70;3.20;;;8.00;97.70;;;;;;5014303;28;20089;-76
2021/11/24 06:35:55;;;;;;;8.18;3.42;;;8.00;97.70;;;;;;5046428;28;20030;-76
2021/11/24 06:38:22;;;;;;;9.25;3.85;;;8.00;97.70;;;;;;5014655;28;20018;-76
2021/11/24 06:40:49;;;;;;;7.40;3.53;;;8.00;97.70;;;;;;5014372;28;20084;-75
2021/11/24 06:43:14;;;;;;;9.15;3.45;;;8.00;97.70;;;;;;5014580;28;20022;-76
2021/11/24 06:45:41;;;;;;;8.90;3.83;;;8.00;97.70;;;;;;5012788;28;20068;-75
2021/11/24 06:48:08;;;;;;;9.15;3.90;;;8.00;97.70;;;;;;5013235;28;20153;-76
2021/11/24 06:50:34;;;;;;;7.40;3.45;;;8.00;97.70;;;;;;5014015;28;20069;-76
2021/11/24 06:53:00;;;;;;;7.65;3.08;;;8.10;97.70;;;;;;5014383;28;20026;-76
2021/11/24 06:55:26;;;;;;;8.63;3.45;;;8.00;97.70;;;;;;5045734;28;20080;-76
2021/11/24 06:57:51;;;;;;;6.18;2.90;;;8.00;97.70;;;;;;5045632;28;20029;-76
2021/11/24 07:00:17;;;;;;;6.78;3.03;;;8.00;97.70;;;;;;5013971;28;20018;-75
2021/11/24 07:02:43;;;;;;;7.43;3.05;;;8.10;97.80;;;;;;5012589;28;20040;-76
2021/11/24 07:05:09;;;;;;;6.53;3.28;;;8.00;97.80;;;;;;5014066;28;20479;-75
2021/11/24 07:07:35;;;;;;;7.75;3.53;;;8.00;97.80;;;;;;5013318;28;20061;-74
2021/11/24 07:10:01;;;;;;;9.77;3.78;;;8.00;97.80;;;;;;5014166;28;20041;-75
2021/11/24 07:12:27;;;;;;;8.82;3.63;;;8.00;97.90;;;;;;5012075;28;20037;-75
2021/11/24 07:14:55;;;;;;;9.20;3.30;;;7.90;97.90;;;;;;5013977;28;20033;-75
2021/11/24 07:17:22;;;;;;;8.30;3.53;;;7.90;97.90;;;;;;5013540;28;20050;-75
2021/11/24 07:19:47;;;;;;;6.93;3.10;;;7.90;98.00;;;;;;5013044;28;20028;-75
2021/11/24 07:22:13;;;;;;;6.28;3.00;;;7.90;98.00;;;;;;5013033;28;20030;-75
2021/11/24 07:24:39;;;;;;;6.95;3.47;;;7.80;98.10;;;;;;5013502;28;20021;-75
2021/11/24 07:27:04;;;;;;;8.20;3.30;;;7.90;98.10;;;;;;5013771;28;20073;-75
2021/11/24 07:29:30;;;;;;;9.07;4.15;;;7.80;98.10;;;;;;5045013;28;20101;-75
2021/11/24 07:31:56;;;;;;;8.50;3.70;;;7.80;98.10;;;;;;5013644;28;20438;-75
2021/11/24 07:34:21;;;;;;;7.38;3.53;;;7.80;98.10;;;;;;5013270;28;20135;-76
2021/11/24 07:36:47;;;;;;;5.78;2.92;;;7.80;98.20;;;;;;5012742;28;20105;-75
2021/11/24 07:39:13;;;;;;;8.25;3.67;;;7.80;98.20;;;;;;5013291;28;20026;-75
2021/11/24 07:41:38;;;;;;;6.97;3.53;;;7.80;98.20;;;;;;5044474;28;20501;-76
2021/11/24 07:44:05;;;;;;;6.97;3.40;;;7.70;98.20;;;;;;5013396;28;20022;-76
2021/11/24 07:46:31;;;;;;;8.40;3.90;;;7.80;98.20;;;;;;5044691;28;20025;-76
2021/11/24 07:48:57;;;;;;;6.63;3.53;;;7.70;98.30;;;;;;5045014;28;20079;-76
2021/11/24 07:51:24;;;;;;;5.93;3.22;;;7.70;98.30;;;;;;5013176;28;20022;-76
2021/11/24 07:53:50;;;;;;;5.80;3.38;;;7.70;98.30;;;;;;5011478;28;20379;-75
2021/11/24 07:56:16;;;;;;;6.80;3.33;;;7.80;98.40;;;;;;5013209;28;20026;-75
2021/11/24 07:58:42;;;;;;;8.60;4.00;;;7.70;98.30;;;;;;5011321;28;20343;-76
2021/11/24 08:01:12;;;;;;;7.00;3.50;;;7.80;98.30;;;;;;5013044;28;20109;-76
2021/11/24 08:03:38;;;;;;;8.77;3.72;;;7.80;98.30;;;;;;5012139;28;20471;-76
2021/11/24 08:06:04;;;;;;;8.38;3.65;;;7.90;98.30;;;;;;5012963;28;20026;-76
2021/11/24 08:08:30;;;;;;;8.05;3.60;;;7.90;98.20;;;;;;5010836;28;20065;-74
2021/11/24 08:10:56;;;;;;;9.32;3.35;;;8.00;98.20;;;;;;5012895;28;20029;-75
2021/11/24 08:13:22;;;;;;;7.35;3.38;;;8.00;98.10;;;;;;5011475;28;20038;-74
2021/11/24 08:15:48;;;;;;;6.80;3.50;;;8.10;98.10;;;;;;5012310;28;20030;-75
2021/11/24 08:18:14;;;;;;;9.52;4.25;;;8.10;98.00;;;;;;5012643;28;20037;-74
2021/11/24 08:20:40;;;;;;;6.25;3.33;;;8.10;98.00;;;;;;5012565;28;20033;-75
2021/11/24 08:23:07;;;;;;;7.40;3.30;;;8.20;98.00;;;;;;5012737;28;20079;-75
2021/11/24 08:25:33;;;;;;;8.88;3.63;;;8.20;97.90;;;;;;5010821;28;20366;-75
2021/11/24 08:27:59;;;;;;;8.85;3.88;;;8.30;97.90;;;;;;5012401;28;20021;-75
2021/11/24 08:30:25;;;;;;;8.15;3.45;;;8.30;97.90;;;;;;5044392;28;20022;-75
2021/11/24 08:32:51;;;;;;;8.00;3.40;;;8.30;97.90;;;;;;5043886;28;20033;-75
2021/11/24 08:35:18;;;;;;;8.98;4.00;;;8.40;97.90;;;;;;5012603;28;20034;-75
2021/11/24 08:37:44;;;;;;;8.38;4.78;;;8.40;97.80;;;;;;5010668;28;20032;-75
2021/11/24 08:40:11;;;;;;;7.53;3.88;;;8.40;97.80;;;;;;5012436;28;20029;-75
2021/11/24 08:42:38;;;;;;;9.48;3.97;;;8.40;97.80;;;;;;5010328;28;20026;-75
2021/11/24 08:45:06;;;;;;;8.10;4.00;;;8.50;98.00;;;;;;5012038;28;20026;-76
2021/11/24 08:47:32;;;;;;;7.68;4.63;;;8.50;97.70;;;;;;5010535;28;20022;-75
2021/11/24 08:49:58;;;;;;;10.10;4.88;;;8.60;97.70;;;;;;5012311;28;20026;-75
2021/11/24 08:52:23;;;;;;;10.13;4.72;;;8.60;97.60;;;;;;5012242;28;20066;-75
2021/11/24 08:54:49;;;;;;;10.93;4.75;;;8.70;97.60;;;;;;5011555;28;20133;-75
2021/11/24 08:57:15;;;;;;;9.57;5.25;;;8.70;97.50;;;;;;5011094;28;20022;-76
2021/11/24 08:59:41;;;;;;;11.02;5.32;;;8.70;97.40;;;;;;5043683;28;20474;-75
2021/11/24 09:02:08;;;;;;;9.27;4.53;;;8.80;97.40;;;;;;5012019;28;20037;-75
2021/11/24 09:04:33;;;;;;;8.60;4.10;;;8.80;97.40;;;;;;5011688;28;20037;-76
2021/11/24 09:06:59;;;;;;;10.93;4.57;;;8.90;97.40;;;;;;5012304;28;20030;-76
2021/11/24 09:09:25;;;;;;;7.93;3.95;;;8.90;97.30;;;;;;5010762;28;20045;-76
2021/11/24 09:11:51;;;;;;;10.02;5.10;;;8.90;97.30;;;;;;5011660;28;20034;-76
2021/11/24 09:14:18;;;;;;;9.73;4.68;;;9.00;97.30;;;;;;5044059;28;20029;-76
2021/11/24 09:16:44;;;;;;;10.05;4.78;;;9.00;97.20;;;;;;5011675;28;20108;-76
2021/11/24 09:19:10;;;;;;;10.35;5.03;;;9.00;97.20;;;;;;5010849;28;20105;-75
2021/11/24 09:21:36;;;;;;;9.18;4.43;;;9.10;97.20;;;;;;5043253;28;20025;-76
2021/11/24 09:24:10;;;;;;;6.68;3.40;;;9.10;97.20;;;;;;5012211;28;20066;-74
2021/11/24 09:26:45;;;;;;;9.25;5.20;;;9.10;97.20;;;;;;5011805;28;20549;-75
2021/11/24 09:29:11;;;;;;;7.22;4.53;;;9.10;97.20;;;;;;5012065;28;20470;-77
2021/11/24 09:31:38;;;;;;;10.77;5.28;;;9.10;97.20;;;;;;5010480;28;20382;-75
2021/11/24 09:34:04;;;;;;;8.10;4.45;;;9.10;97.20;;;;;;5012143;28;20026;-76
2021/11/24 09:36:30;;;;;;;8.95;4.65;;;9.10;97.20;;;;;;5010439;28;20018;-76
2021/11/24 09:38:56;;;;;;;10.27;4.93;;;9.10;97.20;;;;;;5011176;28;20040;-76
2021/11/24 09:41:24;;;;;;;9.35;4.72;;;9.10;97.10;;;;;;5010506;28;20033;-76
2021/11/24 09:43:51;;;;;;;8.68;4.85;;;9.10;97.10;;;;;;5010096;28;20014;-75
2021/11/24 09:46:18;;;;;;;12.07;4.75;;;9.20;97.10;;;;;;5013628;28;20112;-75
2021/11/24 09:48:45;;;;;;;12.35;5.28;;;9.10;97.00;;;;;;5013363;28;20026;-75
2021/11/24 09:51:13;;;;;;;10.63;4.75;;;9.10;97.10;;;;;;5015290;28;20050;-75
2021/11/24 09:53:40;;;;;;;9.90;5.22;;;9.20;97.10;;;;;;5013289;28;20116;-75
2021/11/24 09:56:06;;;;;;;11.27;5.40;;;9.10;97.10;;;;;;5047052;28;20025;-76
2021/11/24 09:58:32;;;;;;;11.00;5.45;;;9.20;97.10;;;;;;5047103;28;20030;-76
2021/11/24 10:00:59;;;;;;;11.85;6.30;;;9.30;97.10;;;;;;5046549;28;20120;-74
2021/11/24 10:03:26;;;;;;;11.32;5.97;;;9.20;97.10;;;;;;5013760;28;20022;-75
2021/11/24 10:05:52;;;;;;;15.52;7.22;;;9.20;97.00;;;;;;5014705;28;20026;-76
2021/11/24 10:08:19;;;;;;;20.13;8.32;;;9.20;97.10;;;;;;5013493;28;20120;-75
2021/11/24 10:10:46;;;;;;;18.90;7.78;;;9.20;97.10;;;;;;5014545;28;20046;-76
2021/11/24 10:13:13;;;;;;;17.67;8.95;;;9.20;97.10;;;;;;5014933;28;20445;-75
2021/11/24 10:15:47;;;;;;;18.92;9.65;;;9.30;97.10;;;;;;5046123;28;20022;-74
2021/11/24 10:18:23;;;;;;;16.00;7.65;;;9.30;97.10;;;;;;5015431;28;20024;-77
2021/11/24 10:20:51;;;;;;;17.20;8.00;;;9.30;97.10;;;;;;5014496;28;20101;-76
2021/11/24 10:23:34;;;;;;;13.27;6.85;;;9.30;97.10;;;;;;5014935;28;20026;-76
2021/11/24 10:26:33;;;;;;;10.88;5.70;;;9.40;97.10;;;;;;5014376;28;20088;-75
2021/11/24 10:29:06;;;;;;;8.15;3.78;;;9.50;97.00;;;;;;5012127;28;20034;-77
2021/11/24 10:31:40;;;;;;;7.45;3.58;;;9.50;96.80;;;;;;5014569;28;20038;-75
2021/11/24 10:34:14;;;;;;;6.22;2.50;;;9.60;96.80;;;;;;5014650;28;20054;-76
2021/11/24 10:36:51;;;;;;;4.32;1.85;;;9.70;96.70;;;;;;5045916;28;20022;-75
2021/11/24 10:39:18;;;;;;;3.60;1.50;;;9.70;96.70;;;;;;5014872;28;20029;-75
2021/11/24 10:41:43;;;;;;;2.22;1.23;;;9.60;96.70;;;;;;5014153;28;20029;-76
2021/11/24 10:44:09;;;;;;;3.72;1.30;;;9.60;96.70;;;;;;5014708;28;20029;-76
2021/11/24 10:46:36;;;;;;;1.52;1.00;;;9.60;96.80;;;;;;5013105;28;20036;-76
2021/11/24 10:49:08;;;;;;;1.88;0.93;;;9.60;96.80;;;;;;5013765;28;20113;-76
2021/11/24 10:51:40;;;;;;;1.52;0.70;;;9.60;96.80;;;;;;5014304;28;20034;-76
2021/11/24 10:54:10;;;;;;;0.57;0.52;;;9.60;96.80;;;;;;5014288;28;20080;-74
2021/11/24 10:56:58;;;;;;;0.85;0.70;;;9.60;96.80;;;;;;5012660;28;20022;-74
2021/11/24 10:59:23;;;;;;;1.38;0.80;;;9.70;96.80;;;;;;5045427;28;20058;-75
2021/11/24 11:01:49;;;;;;;1.70;0.90;;;9.60;96.80;;;;;;5014101;28;20077;-76
2021/11/24 11:04:15;;;;;;;1.42;0.80;;;9.60;96.80;;;;;;5014316;28;20030;-75
2021/11/24 11:06:41;;;;;;;2.38;1.00;;;9.60;96.90;;;;;;5012434;28;20084;-75
2021/11/24 11:09:09;;;;;;;1.33;0.73;;;9.50;96.90;;;;;;5012524;28;20078;-75
2021/11/24 11:11:37;;;;;;;1.30;0.70;;;9.50;96.90;;;;;;5014280;28;20088;-75
2021/11/24 11:14:15;;;;;;;1.95;0.73;;;9.50;96.90;;;;;;5014283;28;20026;-75
2021/11/24 11:16:50;;;;;;;1.00;0.60;;;9.50;96.90;;;;;;5045801;28;20033;-76
2021/11/24 11:19:48;;;;;;;0.88;0.68;;;9.50;96.90;;;;;;5014391;28;20365;-75
2021/11/24 11:22:17;;;;;;;0.85;0.45;;;9.50;96.90;;;;;;5015096;28;20450;-77
2021/11/24 11:24:43;;;;;;;1.38;0.68;;;9.50;96.90;;;;;;5013043;28;20485;-76
2021/11/24 11:27:09;;;;;;;1.35;0.70;;;9.60;96.80;;;;;;5013480;28;20030;-75
2021/11/24 11:29:36;;;;;;;0.70;0.50;;;9.60;96.80;;;;;;5013637;28;20033;-74
2021/11/24 11:32:04;;;;;;;1.25;0.60;;;9.50;96.70;;;;;;5012567;28;20136;-75
2021/11/24 11:34:30;;;;;;;0.77;0.55;;;9.50;96.80;;;;;;5045270;28;20029;-75
2021/11/24 11:36:57;;;;;;;1.20;0.80;;;9.50;96.80;;;;;;5012724;28;20022;-75
2021/11/24 11:39:23;;;;;;;2.40;1.20;;;9.50;96.80;;;;;;5045299;28;20065;-75
2021/11/24 11:41:50;;;;;;;1.23;0.88;;;9.40;96.80;;;;;;5012935;28;20049;-75
2021/11/24 11:44:19;;;;;;;2.00;0.98;;;9.40;96.90;;;;;;5013194;28;20033;-75
2021/11/24 11:46:49;;;;;;;1.73;1.00;;;9.40;96.90;;;;;;5012886;28;20052;-76
2021/11/24 11:49:18;;;;;;;1.33;0.85;;;9.40;96.90;;;;;;5012229;28;20117;-77
2021/11/24 11:51:45;;;;;;;1.20;1.00;;;9.50;96.90;;;;;;5012642;28;20033;-76
2021/11/24 11:54:21;;;;;;;2.15;1.10;;;9.50;96.80;;;;;;5013261;28;20109;-76
2021/11/24 11:56:47;;;;;;;2.05;0.90;;;9.60;96.70;;;;;;5012923;28;20105;-76
2021/11/24 11:59:24;;;;;;;1.70;1.17;;;9.70;96.60;;;;;;5044988;28;20064;-76
2021/11/24 12:02:01;;;;;;;2.22;1.23;;;9.70;96.50;;;;;;5011493;28;20026;-76
2021/11/24 12:05:00;;;;;;;3.45;1.50;;;9.80;96.40;;;;;;5013419;28;20030;-76
2021/11/24 12:07:26;;;;;;;5.55;2.42;;;9.80;96.30;;;;;;5011526;28;20041;-76
2021/11/24 12:09:54;;;;;;;4.03;2.13;;;9.90;96.30;;;;;;5010468;28;20486;-75
2021/11/24 12:12:23;;;;;;;5.68;2.42;;;9.90;96.20;;;;;;5011807;28;20065;-77
2021/11/24 12:14:53;;;;;;;6.82;2.78;;;10.00;96.30;;;;;;5044182;28;20060;-75
2021/11/24 12:17:34;;;;;;;7.03;3.10;;;10.00;96.20;;;;;;5011563;28;20114;-75
2021/11/24 12:20:16;;;;;;;8.90;3.85;;;10.00;96.10;;;;;;5044198;28;20121;-75
2021/11/24 12:25:19;;;;;;;8.73;4.13;;;10.00;96.10;;;;;;5012849;28;20113;-75
2021/11/24 12:27:53;;;;;;;10.35;4.75;;;10.00;96.10;;;;;;5012561;28;20073;-74
2021/11/24 12:33:16;;;;;;;17.15;6.60;;;10.00;96.10;;;;;;5012715;28;20431;-76
2021/11/24 12:36:10;;;;;;;13.52;6.38;;;10.00;96.10;;;;;;5012755;28;20072;-76
2021/11/24 12:38:39;;;;;;;15.32;7.22;;;10.00;96.20;;;;;;5044622;28;20033;-76
2021/11/24 12:41:08;;;;;;;12.80;6.35;;;10.00;96.30;;;;;;5044099;28;20022;-76
2021/11/24 12:43:37;;;;;;;13.38;6.10;;;10.00;96.30;;;;;;5044038;28;20018;-76
2021/11/24 12:46:04;;;;;;;13.75;6.18;;;10.00;96.30;;;;;;5011871;28;20394;-76
2021/11/24 12:48:53;;;;;;;15.60;7.20;;;10.00;96.20;;;;;;5012535;28;20026;-76
2021/11/24 12:51:29;;;;;;;18.27;7.70;;;10.00;96.20;;;;;;5044143;28;20026;-76
2021/11/24 12:54:12;;;;;;;13.52;6.13;;;10.00;96.20;;;;;;5011970;28;20092;-76
2021/11/24 12:56:40;;;;;;;16.75;7.55;;;10.00;96.20;;;;;;5011325;28;20363;-76
2021/11/24 12:59:09;;;;;;;17.67;6.88;;;10.00;96.10;;;;;;5010734;28;20029;-76
2021/11/24 13:01:39;;;;;;;14.70;6.72;;;10.00;96.20;;;;;;5011111;28;20026;-76